createdAt,value
2024-03-04T00:00:57.127Z,0.55
2024-03-04T00:01:57.140Z,0.56
2024-03-04T00:02:57.211Z,0.56
2024-03-04T00:03:57.390Z,0.55
2024-03-04T00:04:57.245Z,0.56
2024-03-04T00:05:57.270Z,0.56
2024-03-04T00:06:57.299Z,0.56
2024-03-04T00:07:57.324Z,0.56
2024-03-04T00:08:57.373Z,0.55
2024-03-04T00:09:57.820Z,0.55
2024-03-04T00:10:57.466Z,0.56
2024-03-04T00:11:57.458Z,0.55
2024-03-04T00:12:57.538Z,0.55
2024-03-04T00:13:57.551Z,0.55
2024-03-04T00:14:57.642Z,0.56
2024-03-04T00:15:57.671Z,0.55
2024-03-04T00:16:57.673Z,0.55
2024-03-04T00:17:57.732Z,0.56
2024-03-04T00:18:57.821Z,0.55
2024-03-04T00:19:57.816Z,0.55
2024-03-04T00:20:57.851Z,0.55
2024-03-04T00:21:57.993Z,0.55
2024-03-04T00:22:57.926Z,0.56
2024-03-04T00:23:57.965Z,0.57
2024-03-04T00:24:58.074Z,0.56
2024-03-04T00:25:58.053Z,0.56
2024-03-04T00:26:58.081Z,0.56
2024-03-04T00:27:58.161Z,0.55
2024-03-04T00:28:58.177Z,0.55
2024-03-04T00:29:58.183Z,0.56
2024-03-04T00:30:58.228Z,0.55
2024-03-04T00:31:58.281Z,0.55
2024-03-04T00:32:58.377Z,0.55
2024-03-04T00:33:58.396Z,0.56
2024-03-04T00:34:58.386Z,0.56
2024-03-04T00:35:59.289Z,0.55
2024-03-04T00:36:58.456Z,0.56
2024-03-04T00:37:58.493Z,0.54
2024-03-04T00:38:58.526Z,0.55
2024-03-04T00:39:58.591Z,0.55
2024-03-04T00:40:58.589Z,0.55
2024-03-04T00:41:58.591Z,0.55
2024-03-04T00:42:58.672Z,0.56
2024-03-04T00:43:58.704Z,0.54
2024-03-04T00:44:58.720Z,0.55
2024-03-04T00:45:58.831Z,0.55
2024-03-04T00:46:58.807Z,0.56
2024-03-04T00:47:58.930Z,0.56
2024-03-04T00:48:58.944Z,0.55
2024-03-04T00:49:58.966Z,0.55
2024-03-04T00:50:59.007Z,0.55
2024-03-04T00:51:59.021Z,0.55
2024-03-04T00:52:59.053Z,0.53
2024-03-04T00:53:59.070Z,0.55
2024-03-04T00:54:59.247Z,0.55
2024-03-04T00:55:59.173Z,0.55
2024-03-04T00:56:59.202Z,0.54
2024-03-04T00:57:59.283Z,0.55
2024-03-04T00:58:59.261Z,0.55
2024-03-04T00:59:59.346Z,0.55
2024-03-04T01:00:59.455Z,0.55
2024-03-04T01:01:59.448Z,0.54
2024-03-04T01:02:59.467Z,0.54
2024-03-04T01:03:59.532Z,0.55
2024-03-04T01:04:59.532Z,0.55
2024-03-04T01:05:59.559Z,0.54
2024-03-04T01:06:59.648Z,0.55
2024-03-04T01:07:59.625Z,0.54
2024-03-04T01:08:59.638Z,0.54
2024-03-04T01:09:59.707Z,0.54
2024-03-04T01:10:59.772Z,0.53
2024-03-04T01:11:59.727Z,0.54
2024-03-04T01:12:59.784Z,0.55
2024-03-04T01:13:59.805Z,0.54
2024-03-04T01:15:00.301Z,0.54
2024-03-04T01:15:59.932Z,0.54
2024-03-04T01:16:59.957Z,0.54
2024-03-04T01:18:00.018Z,0.53
2024-03-04T01:19:00.058Z,0.54
2024-03-04T01:20:00.351Z,0.54
2024-03-04T01:21:00.078Z,0.53
2024-03-04T01:22:00.190Z,0.53
2024-03-04T01:23:00.161Z,0.53
2024-03-04T01:24:00.195Z,0.54
2024-03-04T01:25:00.337Z,0.54
2024-03-04T01:26:00.262Z,0.54
2024-03-04T01:27:00.243Z,0.55
2024-03-04T01:28:00.338Z,0.54
2024-03-04T01:29:00.328Z,0.54
2024-03-04T01:30:00.803Z,0.54
2024-03-04T01:31:00.408Z,0.54
2024-03-04T01:32:00.427Z,0.54
2024-03-04T01:33:00.471Z,0.54
2024-03-04T01:34:00.542Z,0.54
2024-03-04T01:35:00.566Z,0.54
2024-03-04T01:36:00.589Z,0.54
2024-03-04T01:37:00.603Z,0.53
2024-03-04T01:38:00.659Z,0.54
2024-03-04T01:39:00.681Z,0.52
2024-03-04T01:40:00.813Z,0.54
2024-03-04T01:41:00.783Z,0.54
2024-03-04T01:42:00.795Z,0.54
2024-03-04T01:43:00.881Z,0.54
2024-03-04T01:44:00.852Z,0.53
2024-03-04T01:45:01.319Z,0.54
2024-03-04T01:46:00.926Z,0.54
2024-03-04T01:47:00.972Z,0.53
2024-03-04T01:48:01.020Z,0.53
2024-03-04T01:49:01.028Z,0.54
2024-03-04T01:50:01.045Z,0.53
2024-03-04T01:51:01.115Z,0.54
2024-03-04T01:52:01.146Z,0.53
2024-03-04T01:53:01.172Z,0.52
2024-03-04T01:54:01.194Z,0.53
2024-03-04T01:55:01.345Z,0.53
2024-03-04T01:56:01.260Z,0.53
2024-03-04T01:57:01.294Z,0.53
2024-03-04T01:58:01.395Z,0.53
2024-03-04T01:59:01.357Z,0.53
2024-03-04T02:00:01.422Z,0.52
2024-03-04T02:01:01.515Z,0.53
2024-03-04T02:02:01.499Z,0.52
2024-03-04T02:03:01.503Z,0.53
2024-03-04T02:04:01.553Z,0.52
2024-03-04T02:05:01.840Z,0.52
2024-03-04T02:06:01.594Z,0.53
2024-03-04T02:07:01.635Z,0.53
2024-03-04T02:08:01.683Z,0.53
2024-03-04T02:09:01.669Z,0.52
2024-03-04T02:10:01.819Z,0.52
2024-03-04T02:11:01.754Z,0.52
2024-03-04T02:12:01.848Z,0.53
2024-03-04T02:13:01.855Z,0.53
2024-03-04T02:14:01.831Z,0.52
2024-03-04T02:15:02.348Z,0.52
2024-03-04T02:16:01.946Z,0.51
2024-03-04T02:17:01.932Z,0.52
2024-03-04T02:18:02.015Z,0.53
2024-03-04T02:19:02.067Z,0.52
2024-03-04T02:20:02.050Z,0.53
2024-03-04T02:21:02.040Z,0.51
2024-03-04T02:22:02.187Z,0.52
2024-03-04T02:23:02.141Z,0.52
2024-03-04T02:24:02.140Z,0.52
2024-03-04T02:25:02.393Z,0.52
2024-03-04T02:26:02.244Z,0.52
2024-03-04T02:27:02.314Z,0.51
2024-03-04T02:28:02.429Z,0.51
2024-03-04T02:29:03.322Z,0.51
2024-03-04T02:30:02.419Z,0.51
2024-03-04T02:31:02.324Z,0.52
2024-03-04T02:32:02.202Z,0.51
2024-03-04T02:33:02.220Z,0.51
2024-03-04T02:34:02.258Z,0.51
2024-03-04T02:35:02.345Z,0.51
2024-03-04T02:36:02.134Z,0.51
2024-03-04T02:37:02.124Z,0.52
2024-03-04T02:38:02.107Z,0.52
2024-03-04T02:39:02.154Z,0.52
2024-03-04T02:40:02.455Z,0.51
2024-03-04T02:41:02.224Z,0.51
2024-03-04T02:42:02.235Z,0.52
2024-03-04T02:43:02.340Z,0.51
2024-03-04T02:44:02.343Z,0.51
2024-03-04T02:45:02.858Z,0.50
2024-03-04T02:46:02.432Z,0.51
2024-03-04T02:47:02.432Z,0.51
2024-03-04T02:48:02.505Z,0.51
2024-03-04T02:49:02.532Z,0.52
2024-03-04T02:50:02.617Z,0.51
2024-03-04T02:51:02.544Z,0.51
2024-03-04T02:52:04.180Z,0.51
2024-03-04T02:53:02.613Z,0.51
2024-03-04T02:54:02.609Z,0.51
2024-03-04T02:55:02.866Z,0.50
2024-03-04T02:56:02.713Z,0.51
2024-03-04T02:57:02.751Z,0.52
2024-03-04T02:58:02.783Z,0.51
2024-03-04T02:59:02.771Z,0.52
2024-03-04T03:00:02.839Z,0.51
2024-03-04T03:01:02.994Z,0.52
2024-03-04T03:02:02.994Z,0.51
2024-03-04T03:03:02.936Z,0.51
2024-03-04T03:04:02.965Z,0.51
2024-03-04T03:05:03.071Z,0.50
2024-03-04T03:06:03.013Z,0.51
2024-03-04T03:07:03.093Z,0.51
2024-03-04T03:08:03.099Z,0.51
2024-03-04T03:09:03.132Z,0.51
2024-03-04T03:10:03.413Z,0.51
2024-03-04T03:11:03.246Z,0.51
2024-03-04T03:12:03.257Z,0.51
2024-03-04T03:13:03.338Z,0.52
2024-03-04T03:14:03.269Z,0.51
2024-03-04T03:15:03.350Z,0.51
2024-03-04T03:16:03.347Z,0.51
2024-03-04T03:17:03.398Z,0.51
2024-03-04T03:18:03.422Z,0.50
2024-03-04T03:19:03.474Z,0.51
2024-03-04T03:20:03.867Z,0.51
2024-03-04T03:21:03.532Z,0.51
2024-03-04T03:22:03.584Z,0.51
2024-03-04T03:23:03.609Z,0.52
2024-03-04T03:24:03.605Z,0.51
2024-03-04T03:25:03.695Z,0.51
2024-03-04T03:26:03.703Z,0.50
2024-03-04T03:27:03.709Z,0.51
2024-03-04T03:28:03.778Z,0.51
2024-03-04T03:29:03.774Z,0.51
2024-03-04T03:30:03.879Z,0.51
2024-03-04T03:31:03.777Z,0.51
2024-03-04T03:32:03.756Z,0.51
2024-03-04T03:33:03.834Z,0.52
2024-03-04T03:34:03.809Z,0.52
2024-03-04T03:35:03.820Z,0.51
2024-03-04T03:36:03.866Z,0.52
2024-03-04T03:37:03.950Z,0.51
2024-03-04T03:38:03.948Z,0.50
2024-03-04T03:39:03.954Z,0.51
2024-03-04T03:40:04.389Z,0.51
2024-03-04T03:41:04.021Z,0.51
2024-03-04T03:42:04.061Z,0.51
2024-03-04T03:43:04.141Z,0.51
2024-03-04T03:44:04.106Z,0.51
2024-03-04T03:45:04.378Z,0.51
2024-03-04T03:46:04.174Z,0.51
2024-03-04T03:47:04.215Z,0.51
2024-03-04T03:48:04.277Z,0.50
2024-03-04T03:49:04.287Z,0.51
2024-03-04T03:50:04.345Z,0.51
2024-03-04T03:51:04.311Z,0.51
2024-03-04T03:52:04.481Z,0.51
2024-03-04T03:53:04.418Z,0.51
2024-03-04T03:54:04.452Z,0.52
2024-03-04T03:55:04.994Z,0.51
2024-03-04T03:56:04.541Z,0.52
2024-03-04T03:57:04.549Z,0.52
2024-03-04T03:58:04.591Z,0.53
2024-03-04T03:59:04.609Z,0.53
2024-03-04T04:00:04.859Z,0.52
2024-03-04T04:01:04.762Z,0.52
2024-03-04T04:02:04.828Z,0.52
2024-03-04T04:03:04.745Z,0.53
2024-03-04T04:04:04.826Z,0.53
2024-03-04T04:05:04.805Z,0.52
2024-03-04T04:06:04.844Z,0.53
2024-03-04T04:07:04.948Z,0.51
2024-03-04T04:08:04.892Z,0.52
2024-03-04T04:09:04.944Z,0.53
2024-03-04T04:10:05.410Z,0.52
2024-03-04T04:11:04.999Z,0.51
2024-03-04T04:12:05.017Z,0.52
2024-03-04T04:13:05.156Z,0.52
2024-03-04T04:14:05.090Z,0.52
2024-03-04T04:15:05.131Z,0.52
2024-03-04T04:16:05.212Z,0.52
2024-03-04T04:17:05.226Z,0.51
2024-03-04T04:18:05.277Z,0.51
2024-03-04T04:19:05.270Z,0.52
2024-03-04T04:20:05.400Z,0.51
2024-03-04T04:21:12.549Z,0.50
2024-03-04T04:22:12.612Z,0.50
2024-03-04T04:23:12.618Z,0.50
2024-03-04T04:24:12.586Z,0.50
2024-03-04T04:25:12.635Z,0.50
2024-03-04T04:26:12.567Z,0.50
2024-03-04T04:27:12.649Z,0.51
2024-03-04T04:28:12.620Z,0.51
2024-03-04T04:29:12.601Z,0.50
2024-03-04T04:30:12.674Z,0.51
2024-03-04T04:31:19.877Z,0.50
2024-03-04T04:32:19.895Z,0.50
2024-03-04T04:33:19.862Z,0.50
2024-03-04T04:34:19.970Z,0.50
2024-03-04T04:35:19.886Z,0.50
2024-03-04T04:36:19.892Z,0.51
2024-03-04T04:37:19.884Z,0.51
2024-03-04T04:38:19.905Z,0.51
2024-03-04T04:39:19.909Z,0.51
2024-03-04T04:40:20.111Z,0.51
2024-03-04T04:41:19.929Z,0.51
2024-03-04T04:42:19.933Z,0.51
2024-03-04T04:43:19.961Z,0.51
2024-03-04T04:44:19.943Z,0.50
2024-03-04T04:45:19.993Z,0.51
2024-03-04T04:46:19.978Z,0.50
2024-03-04T04:47:19.992Z,0.51
2024-03-04T04:48:20.000Z,0.51
2024-03-04T04:49:20.376Z,0.52
2024-03-04T04:50:20.453Z,0.51
2024-03-04T04:51:20.079Z,0.50
2024-03-04T04:52:20.094Z,0.52
2024-03-04T04:53:20.091Z,0.51
2024-03-04T04:54:20.106Z,0.51
2024-03-04T04:55:20.513Z,0.52
2024-03-04T04:56:20.172Z,0.51
2024-03-04T04:57:20.174Z,0.51
2024-03-04T04:58:20.256Z,0.52
2024-03-04T04:59:20.195Z,0.51
2024-03-04T05:00:20.205Z,0.51
2024-03-04T05:01:20.230Z,0.50
2024-03-04T05:02:20.272Z,0.51
2024-03-04T05:03:33.592Z,0.51
2024-03-04T05:04:38.444Z,0.51
2024-03-04T05:05:21.543Z,0.51
2024-03-04T05:06:20.294Z,0.51
2024-03-04T05:07:20.389Z,0.52
2024-03-04T05:08:20.369Z,0.52
2024-03-04T05:09:20.316Z,0.52
2024-03-04T05:10:20.511Z,0.52
2024-03-04T05:11:20.979Z,0.52
2024-03-04T05:12:20.957Z,0.51
2024-03-04T05:13:20.396Z,0.52
2024-03-04T05:14:20.373Z,0.51
2024-03-04T05:15:20.457Z,0.53
2024-03-04T05:16:20.421Z,0.51
2024-03-04T05:17:20.417Z,0.52
2024-03-04T05:18:20.417Z,0.51
2024-03-04T05:19:20.461Z,0.51
2024-03-04T05:20:20.450Z,0.51
2024-03-04T05:21:20.457Z,0.51
2024-03-04T05:22:20.574Z,0.52
2024-03-04T05:23:20.511Z,0.52
2024-03-04T05:24:20.535Z,0.52
2024-03-04T05:25:21.001Z,0.52
2024-03-04T05:26:20.549Z,0.51
2024-03-04T05:27:20.560Z,0.51
2024-03-04T05:28:20.610Z,0.52
2024-03-04T05:29:20.606Z,0.51
2024-03-04T05:30:20.944Z,0.51
2024-03-04T05:31:20.689Z,0.51
2024-03-04T05:32:20.615Z,0.52
2024-03-04T05:33:20.695Z,0.52
2024-03-04T05:34:20.700Z,0.52
2024-03-04T05:35:20.675Z,0.51
2024-03-04T05:36:20.693Z,0.52
2024-03-04T05:37:20.702Z,0.51
2024-03-04T05:38:20.722Z,0.50
2024-03-04T05:39:20.724Z,0.51
2024-03-04T05:40:20.757Z,0.51
2024-03-04T05:41:20.712Z,0.51
2024-03-04T05:42:20.770Z,0.51
2024-03-04T05:43:20.820Z,0.51
2024-03-04T05:44:20.779Z,0.52
2024-03-04T05:45:20.986Z,0.51
2024-03-04T05:46:20.845Z,0.52
2024-03-04T05:47:20.877Z,0.52
2024-03-04T05:48:20.859Z,0.52
2024-03-04T05:49:20.954Z,0.52
2024-03-04T05:50:20.919Z,0.53
2024-03-04T05:51:20.940Z,0.52
2024-03-04T05:52:20.970Z,0.51
2024-03-04T05:53:20.974Z,0.49
2024-03-04T05:54:20.954Z,0.43
2024-03-04T05:55:21.061Z,0.41
2024-03-04T05:56:21.002Z,0.43
2024-03-04T05:57:21.066Z,0.49
2024-03-04T05:58:21.139Z,0.50
2024-03-04T05:59:21.205Z,0.51
2024-03-04T06:00:21.223Z,0.54
2024-03-04T06:01:21.302Z,0.57
2024-03-04T06:02:21.299Z,0.64
2024-03-04T06:03:21.315Z,0.71
2024-03-04T06:04:21.466Z,0.80
2024-03-04T06:05:21.475Z,0.86
2024-03-04T06:06:21.487Z,0.92
2024-03-04T06:07:21.562Z,0.96
2024-03-04T06:08:21.558Z,0.98
2024-03-04T06:09:21.610Z,1.03
2024-03-04T06:10:21.766Z,1.04
2024-03-04T06:11:21.718Z,1.10
2024-03-04T06:12:21.684Z,1.10
2024-03-04T06:13:21.777Z,1.11
2024-03-04T06:14:21.764Z,1.14
2024-03-04T06:15:21.849Z,1.17
2024-03-04T06:16:21.885Z,1.17
2024-03-04T06:17:21.884Z,1.17
2024-03-04T06:18:21.903Z,1.15
2024-03-04T06:19:21.969Z,1.18
2024-03-04T06:20:21.973Z,1.20
2024-03-04T06:21:22.045Z,1.19
2024-03-04T06:22:22.049Z,1.20
2024-03-04T06:23:22.088Z,1.21
2024-03-04T06:24:22.133Z,1.22
2024-03-04T06:25:22.213Z,1.22
2024-03-04T06:26:22.217Z,1.22
2024-03-04T06:27:22.236Z,1.23
2024-03-04T06:28:22.269Z,1.26
2024-03-04T06:29:22.310Z,1.27
2024-03-04T06:30:22.375Z,1.30
2024-03-04T06:31:22.501Z,1.31
2024-03-04T06:32:22.453Z,1.33
2024-03-04T06:33:24.646Z,1.36
2024-03-04T06:34:24.578Z,1.36
2024-03-04T06:35:22.583Z,1.36
2024-03-04T06:36:22.986Z,1.38
2024-03-04T06:37:22.611Z,1.39
2024-03-04T06:38:22.625Z,1.41
2024-03-04T06:39:22.657Z,1.43
2024-03-04T06:40:23.033Z,1.41
2024-03-04T06:41:22.743Z,1.46
2024-03-04T06:42:22.821Z,1.42
2024-03-04T06:43:22.884Z,1.42
2024-03-04T06:44:22.915Z,1.43
2024-03-04T06:45:24.412Z,1.37
2024-03-04T06:46:23.008Z,1.33
2024-03-04T06:47:22.984Z,1.29
2024-03-04T06:48:23.029Z,1.29
2024-03-04T06:49:23.064Z,1.30
2024-03-04T06:50:23.075Z,1.30
2024-03-04T06:51:23.091Z,1.22
2024-03-04T06:52:23.224Z,1.26
2024-03-04T06:53:23.137Z,1.20
2024-03-04T06:54:23.198Z,0.90
2024-03-04T06:55:23.287Z,0.98
2024-03-04T06:56:23.263Z,1.08
2024-03-04T06:57:23.262Z,1.21
2024-03-04T06:58:23.308Z,1.31
2024-03-04T06:59:23.328Z,1.32
2024-03-04T07:00:23.335Z,1.37
2024-03-04T07:01:23.484Z,1.40
2024-03-04T07:02:23.400Z,1.48
2024-03-04T07:03:23.401Z,1.57
2024-03-04T07:04:23.489Z,1.60
2024-03-04T07:05:23.493Z,1.65
2024-03-04T07:06:23.488Z,1.65
2024-03-04T07:07:23.564Z,1.74
2024-03-04T07:08:23.563Z,1.76
2024-03-04T07:09:23.584Z,1.80
2024-03-04T07:10:24.018Z,1.80
2024-03-04T07:11:23.624Z,1.88
2024-03-04T07:12:23.685Z,1.85
2024-03-04T07:13:23.712Z,1.79
2024-03-04T07:14:23.682Z,1.90
2024-03-04T07:15:24.082Z,1.95
2024-03-04T07:16:23.814Z,1.98
2024-03-04T07:17:23.758Z,2.11
2024-03-04T07:18:23.813Z,2.13
2024-03-04T07:19:23.860Z,2.08
2024-03-04T07:20:23.836Z,2.15
2024-03-04T07:21:23.858Z,2.14
2024-03-04T07:22:23.916Z,2.18
2024-03-04T07:23:23.888Z,2.17
2024-03-04T07:24:23.925Z,2.27
2024-03-04T07:25:23.982Z,2.28
2024-03-04T07:26:23.990Z,2.30
2024-03-04T07:27:23.978Z,2.38
2024-03-04T07:28:24.006Z,2.41
2024-03-04T07:29:31.600Z,2.47
2024-03-04T07:30:25.021Z,2.47
2024-03-04T07:31:24.107Z,2.48
2024-03-04T07:32:24.063Z,2.50
2024-03-04T07:33:24.072Z,2.55
2024-03-04T07:34:24.123Z,2.50
2024-03-04T07:35:24.537Z,2.60
2024-03-04T07:36:24.140Z,2.64
2024-03-04T07:37:24.213Z,2.70
2024-03-04T07:38:24.205Z,2.80
2024-03-04T07:39:24.199Z,2.78
2024-03-04T07:40:24.580Z,2.64
2024-03-04T07:41:24.255Z,2.58
2024-03-04T07:42:24.289Z,2.61
2024-03-04T07:43:24.476Z,2.59
2024-03-04T07:44:24.391Z,2.75
2024-03-04T07:45:24.443Z,2.69
2024-03-04T07:46:24.518Z,2.75
2024-03-04T07:47:24.614Z,2.76
2024-03-04T07:48:24.624Z,2.79
2024-03-04T07:49:24.695Z,2.74
2024-03-04T07:50:24.785Z,2.80
2024-03-04T07:51:24.871Z,2.77
2024-03-04T07:52:24.949Z,2.78
2024-03-04T07:53:24.961Z,2.79
2024-03-04T07:54:25.027Z,2.87
2024-03-04T07:55:25.090Z,2.85
2024-03-04T07:56:25.119Z,2.83
2024-03-04T07:57:25.817Z,2.78
2024-03-04T07:58:25.236Z,2.56
2024-03-04T07:59:25.194Z,2.53
2024-03-04T08:00:25.233Z,2.48
2024-03-04T08:01:25.424Z,2.49
2024-03-04T08:02:25.354Z,2.51
2024-03-04T08:03:25.476Z,2.54
2024-03-04T08:04:25.550Z,2.58
2024-03-04T08:05:26.023Z,2.56
2024-03-04T08:06:25.647Z,2.61
2024-03-04T08:07:25.759Z,2.64
2024-03-04T08:08:25.793Z,2.70
2024-03-04T08:09:25.813Z,2.71
2024-03-04T08:10:25.974Z,2.79
2024-03-04T08:11:26.061Z,2.80
2024-03-04T08:12:26.014Z,2.80
2024-03-04T08:13:26.114Z,2.83
2024-03-04T08:14:26.156Z,2.81
2024-03-04T08:15:26.215Z,2.84
2024-03-04T08:16:26.289Z,2.86
2024-03-04T08:17:28.641Z,2.88
2024-03-04T08:18:26.375Z,2.88
2024-03-04T08:19:26.366Z,2.90
2024-03-04T08:20:33.553Z,2.91
2024-03-04T08:21:27.338Z,2.88
2024-03-04T08:22:26.456Z,2.89
2024-03-04T08:23:26.365Z,2.91
2024-03-04T08:24:26.384Z,2.97
2024-03-04T08:25:26.423Z,3.02
2024-03-04T08:26:26.368Z,3.07
2024-03-04T08:27:26.425Z,3.11
2024-03-04T08:28:32.443Z,3.11
2024-03-04T08:29:27.488Z,3.12
2024-03-04T08:30:26.442Z,3.13
2024-03-04T08:31:26.470Z,3.14
2024-03-04T08:32:26.459Z,3.18
2024-03-04T08:33:26.448Z,3.24
2024-03-04T08:34:26.480Z,3.28
2024-03-04T08:35:26.547Z,3.33
2024-03-04T08:36:26.496Z,3.47
2024-03-04T08:37:26.536Z,3.63
2024-03-04T08:38:26.549Z,3.79
2024-03-04T08:39:26.509Z,3.82
2024-03-04T08:40:26.574Z,3.83
2024-03-04T08:41:26.564Z,3.88
2024-03-04T08:42:26.576Z,3.84
2024-03-04T08:43:26.611Z,3.85
2024-03-04T08:44:26.591Z,3.81
2024-03-04T08:45:27.021Z,3.75
2024-03-04T08:46:26.610Z,3.47
2024-03-04T08:47:26.625Z,3.51
2024-03-04T08:48:26.591Z,3.39
2024-03-04T08:49:26.664Z,3.39
2024-03-04T08:50:27.052Z,3.40
2024-03-04T08:51:26.779Z,3.55
2024-03-04T08:52:26.884Z,3.57
2024-03-04T08:53:26.892Z,3.53
2024-03-04T08:54:26.965Z,3.35
2024-03-04T08:55:27.147Z,3.22
2024-03-04T08:56:27.027Z,3.15
2024-03-04T08:57:27.051Z,3.11
2024-03-04T08:58:27.173Z,2.99
2024-03-04T08:59:27.137Z,2.88
2024-03-04T09:00:27.163Z,2.66
2024-03-04T09:01:27.380Z,2.55
2024-03-04T09:02:27.288Z,2.46
2024-03-04T09:03:27.269Z,2.50
2024-03-04T09:04:27.319Z,2.40
2024-03-04T09:05:27.653Z,2.41
2024-03-04T09:06:27.385Z,2.28
2024-03-04T09:07:28.054Z,2.24
2024-03-04T09:08:27.466Z,2.13
2024-03-04T09:09:27.462Z,1.98
2024-03-04T09:10:27.596Z,1.90
2024-03-04T09:11:27.577Z,1.78
2024-03-04T09:12:27.591Z,1.78
2024-03-04T09:13:27.731Z,1.76
2024-03-04T09:14:27.651Z,1.78
2024-03-04T09:15:28.054Z,1.76
2024-03-04T09:16:27.768Z,1.72
2024-03-04T09:17:27.775Z,1.67
2024-03-04T09:18:27.805Z,1.59
2024-03-04T09:19:27.881Z,1.54
2024-03-04T09:20:28.055Z,1.57
2024-03-04T09:21:27.880Z,1.59
2024-03-04T09:22:27.978Z,1.52
2024-03-04T09:23:28.000Z,1.52
2024-03-04T09:24:28.021Z,1.47
2024-03-04T09:25:28.128Z,1.44
2024-03-04T09:26:28.131Z,1.43
2024-03-04T09:27:28.184Z,1.43
2024-03-04T09:28:28.203Z,1.37
2024-03-04T09:29:28.256Z,1.28
2024-03-04T09:30:28.578Z,1.27
2024-03-04T09:31:28.357Z,1.30
2024-03-04T09:32:28.445Z,1.29
2024-03-04T09:33:28.410Z,1.31
2024-03-04T09:34:28.531Z,1.28
2024-03-04T09:35:28.656Z,1.25
2024-03-04T09:36:28.529Z,1.22
2024-03-04T09:37:28.639Z,1.22
2024-03-04T09:38:28.648Z,1.18
2024-03-04T09:39:28.641Z,1.16
2024-03-04T09:40:29.131Z,1.15
2024-03-04T09:41:28.712Z,1.11
2024-03-04T09:42:28.721Z,1.10
2024-03-04T09:43:28.818Z,1.05
2024-03-04T09:44:28.995Z,1.01
2024-03-04T09:45:29.105Z,1.00
2024-03-04T09:46:28.926Z,0.99
2024-03-04T09:47:29.451Z,0.97
2024-03-04T09:48:28.987Z,1.02
2024-03-04T09:49:29.004Z,1.03
2024-03-04T09:50:29.024Z,1.00
2024-03-04T09:51:29.065Z,1.02
2024-03-04T09:52:29.131Z,1.01
2024-03-04T09:53:29.149Z,1.03
2024-03-04T09:54:29.209Z,1.00
2024-03-04T09:55:29.591Z,1.01
2024-03-04T09:56:29.272Z,1.00
2024-03-04T09:57:29.356Z,1.01
2024-03-04T09:58:29.360Z,1.00
2024-03-04T09:59:29.405Z,0.96
2024-03-04T10:00:29.593Z,0.91
2024-03-04T10:01:29.573Z,0.91
2024-03-04T10:02:29.537Z,0.90
2024-03-04T10:03:29.626Z,0.86
2024-03-04T10:04:29.673Z,0.85
2024-03-04T10:05:30.120Z,0.81
2024-03-04T10:06:29.728Z,0.82
2024-03-04T10:07:29.832Z,0.84
2024-03-04T10:08:29.833Z,0.82
2024-03-04T10:09:29.889Z,0.83
2024-03-04T10:10:29.978Z,0.83
2024-03-04T10:11:29.973Z,0.83
2024-03-04T10:12:29.994Z,0.82
2024-03-04T10:13:30.092Z,0.82
2024-03-04T10:14:30.072Z,0.87
2024-03-04T10:15:30.578Z,0.88
2024-03-04T10:16:30.235Z,0.91
2024-03-04T10:17:31.076Z,0.90
2024-03-04T10:18:30.250Z,0.88
2024-03-04T10:19:30.302Z,0.92
2024-03-04T10:20:30.549Z,0.92
2024-03-04T10:21:30.374Z,0.97
2024-03-04T10:22:30.478Z,1.00
2024-03-04T10:23:30.497Z,1.07
2024-03-04T10:24:30.498Z,1.08
2024-03-04T10:25:30.549Z,1.14
2024-03-04T10:26:30.627Z,1.15
2024-03-04T10:27:30.666Z,1.18
2024-03-04T10:28:30.757Z,1.20
2024-03-04T10:29:30.825Z,1.23
2024-03-04T10:30:31.082Z,1.24
2024-03-04T10:31:30.965Z,1.21
2024-03-04T10:32:31.045Z,1.21
2024-03-04T10:33:31.164Z,1.21
2024-03-04T10:34:31.228Z,1.15
2024-03-04T10:35:31.239Z,1.14
2024-03-04T10:36:31.258Z,1.12
2024-03-04T10:37:31.366Z,1.19
2024-03-04T10:38:31.571Z,1.19
2024-03-04T10:39:32.438Z,1.19
2024-03-04T10:40:31.619Z,1.20
2024-03-04T10:41:31.448Z,1.22
2024-03-04T10:42:31.468Z,1.26
2024-03-04T10:43:31.561Z,1.30
2024-03-04T10:44:31.524Z,1.36
2024-03-04T10:45:31.549Z,1.35
2024-03-04T10:46:31.593Z,1.30
2024-03-04T10:47:31.558Z,1.25
2024-03-04T10:48:31.597Z,1.25
2024-03-04T10:49:31.708Z,1.31
2024-03-04T10:50:32.436Z,1.32
2024-03-04T10:51:31.764Z,1.34
2024-03-04T10:52:31.816Z,1.36
2024-03-04T10:53:31.882Z,1.36
2024-03-04T10:54:31.902Z,1.34
2024-03-04T10:55:32.309Z,1.46
2024-03-04T10:56:33.030Z,1.55
2024-03-04T10:57:32.078Z,1.64
2024-03-04T10:58:32.140Z,1.75
2024-03-04T10:59:32.183Z,1.84
2024-03-04T11:00:32.588Z,1.93
2024-03-04T11:01:32.336Z,2.02
2024-03-04T11:02:32.259Z,2.12
2024-03-04T11:03:32.297Z,2.34
2024-03-04T11:04:32.383Z,2.55
2024-03-04T11:05:32.380Z,2.75
2024-03-04T11:06:32.393Z,2.81
2024-03-04T11:07:32.447Z,2.96
2024-03-04T11:08:32.426Z,3.06
2024-03-04T11:09:32.459Z,3.15
2024-03-04T11:10:32.626Z,3.25
2024-03-04T11:11:32.575Z,3.32
2024-03-04T11:12:32.570Z,3.41
2024-03-04T11:13:32.628Z,3.50
2024-03-04T11:14:32.617Z,3.54
2024-03-04T11:15:32.612Z,3.61
2024-03-04T11:16:32.738Z,3.69
2024-03-04T11:17:32.774Z,3.64
2024-03-04T11:18:32.718Z,3.78
2024-03-04T11:19:32.766Z,3.83
2024-03-04T11:20:32.740Z,3.77
2024-03-04T11:21:32.764Z,3.92
2024-03-04T11:22:32.794Z,3.99
2024-03-04T11:23:32.773Z,4.00
2024-03-04T11:24:32.803Z,3.99
2024-03-04T11:25:32.902Z,4.16
2024-03-04T11:26:32.796Z,4.07
2024-03-04T11:27:32.828Z,4.20
2024-03-04T11:28:32.909Z,4.32
2024-03-04T11:29:32.896Z,4.13
2024-03-04T11:30:32.896Z,4.17
2024-03-04T11:31:33.006Z,4.01
2024-03-04T11:32:32.953Z,4.32
2024-03-04T11:33:32.958Z,4.32
2024-03-04T11:34:32.965Z,4.32
2024-03-04T11:35:33.004Z,4.32
2024-03-04T11:36:33.018Z,4.45
2024-03-04T11:37:33.070Z,4.28
2024-03-04T11:38:34.017Z,4.67
2024-03-04T11:39:33.071Z,4.63
2024-03-04T11:40:33.118Z,4.46
2024-03-04T11:41:33.091Z,4.50
2024-03-04T11:42:33.125Z,4.56
2024-03-04T11:43:33.171Z,4.43
2024-03-04T11:44:33.150Z,4.39
2024-03-04T11:45:33.188Z,4.45
2024-03-04T11:46:33.279Z,4.53
2024-03-04T11:47:33.248Z,4.33
2024-03-04T11:48:33.221Z,4.02
2024-03-04T11:49:33.257Z,4.10
2024-03-04T11:50:33.616Z,3.78
2024-03-04T11:51:33.282Z,3.85
2024-03-04T11:52:33.303Z,3.86
2024-03-04T11:53:33.297Z,4.22
2024-03-04T11:54:33.345Z,4.10
2024-03-04T11:55:33.381Z,4.23
2024-03-04T11:56:33.372Z,4.15
2024-03-04T11:57:33.369Z,4.42
2024-03-04T11:58:33.440Z,4.70
2024-03-04T11:59:33.482Z,4.51
2024-03-04T12:00:33.624Z,4.80
2024-03-04T12:01:33.621Z,4.95
2024-03-04T12:02:33.674Z,5.01
2024-03-04T12:03:33.706Z,5.19
2024-03-04T12:04:33.801Z,5.41
2024-03-04T12:05:34.126Z,5.54
2024-03-04T12:06:33.830Z,5.54
2024-03-04T12:07:33.942Z,5.91
2024-03-04T12:08:45.621Z,5.89
2024-03-04T12:09:50.174Z,5.90
2024-03-04T12:10:34.964Z,5.92
2024-03-04T12:11:34.206Z,6.00
2024-03-04T12:12:33.912Z,6.28
2024-03-04T12:13:33.950Z,6.63
2024-03-04T12:14:33.924Z,8.11
2024-03-04T12:15:33.905Z,9.23
2024-03-04T12:16:34.264Z,9.47
2024-03-04T12:17:33.920Z,9.41
2024-03-04T12:18:33.950Z,9.57
2024-03-04T12:19:33.930Z,9.45
2024-03-04T12:20:33.938Z,9.37
2024-03-04T12:21:34.136Z,9.42
2024-03-04T12:22:35.247Z,10.22
2024-03-04T12:23:33.859Z,10.64
2024-03-04T12:24:33.840Z,11.74
2024-03-04T12:25:33.931Z,11.62
2024-03-04T12:26:34.154Z,11.85
2024-03-04T12:27:33.822Z,11.70
2024-03-04T12:28:33.835Z,11.83
2024-03-04T12:29:33.817Z,11.69
2024-03-04T12:30:33.875Z,11.79
2024-03-04T12:31:34.180Z,11.82
2024-03-04T12:32:33.840Z,11.94
2024-03-04T12:33:33.749Z,11.76
2024-03-04T12:34:33.725Z,11.86
2024-03-04T12:35:33.761Z,11.68
2024-03-04T12:36:33.733Z,11.46
2024-03-04T12:37:33.855Z,11.27
2024-03-04T12:38:33.699Z,10.63
2024-03-04T12:39:33.697Z,10.97
2024-03-04T12:40:33.763Z,10.77
2024-03-04T12:41:34.707Z,10.74
2024-03-04T12:42:33.687Z,10.56
2024-03-04T12:43:33.718Z,10.22
2024-03-04T12:44:33.687Z,10.16
2024-03-04T12:45:33.776Z,9.81
2024-03-04T12:46:33.833Z,10.44
2024-03-04T12:47:33.903Z,9.82
2024-03-04T12:48:33.901Z,9.83
2024-03-04T12:49:34.770Z,8.80
2024-03-04T12:50:33.868Z,8.09
2024-03-04T12:51:33.934Z,7.72
2024-03-04T12:52:34.000Z,7.75
2024-03-04T12:53:33.950Z,7.36
2024-03-04T12:54:33.978Z,7.03
2024-03-04T12:55:34.062Z,6.15
2024-03-04T12:56:34.133Z,5.95
2024-03-04T12:57:34.081Z,5.47
2024-03-04T12:58:34.107Z,5.42
2024-03-04T12:59:34.091Z,5.16
2024-03-04T13:00:34.140Z,4.78
2024-03-04T13:01:34.662Z,4.59
2024-03-04T13:02:34.166Z,4.74
2024-03-04T13:03:34.174Z,4.61
2024-03-04T13:04:34.235Z,4.45
2024-03-04T13:05:34.242Z,4.30
2024-03-04T13:06:35.174Z,4.04
2024-03-04T13:07:34.296Z,4.21
2024-03-04T13:08:34.310Z,4.09
2024-03-04T13:09:34.304Z,3.94
2024-03-04T13:10:34.368Z,3.85
2024-03-04T13:11:34.396Z,3.49
2024-03-04T13:12:34.442Z,3.39
2024-03-04T13:13:34.495Z,3.41
2024-03-04T13:14:34.465Z,3.24
2024-03-04T13:15:34.515Z,3.13
2024-03-04T13:16:34.675Z,2.99
2024-03-04T13:17:34.568Z,2.82
2024-03-04T13:18:34.583Z,2.74